Terminal Aerodrome Forecast
Issued by NWS Pittsburgh, PA

Current Version | Previous Version | Graphics & Text | Print | Product List | Glossary On
Versions: 1 2 3 4 5 6 7 8 9 10 11 12 13 14 15 16 17 18 19 20 21 22 23 24 25 26 27 28 29 30 31 32 33 34
000
FTUS41 KPBZ 250534
TAFPIT
TAF
KPIT 250534Z 2506/2612 16009KT 4SM SHRA SCT008 OVC012 WS020/20045KT
     FM251000 18010KT 6SM -SHRA OVC025 WS020/20045KT
     FM251500 23011G20KT P6SM BKN035
     FM252200 25009KT P6SM FEW035=

USA.gov is the U.S. government's official web portal to all federal, state and local government web resources and services.